Breedsville, MI (49027)

3:36 PM EDT on September 01, 2014 (GMT -0400)
Columbia Twp | Change Station
CLOSE
Current Station
Personal Weather Station
Location: Grand Junction, MI
Elevation: 665 ft
Nearby Weather Stations
Active Advisory: Beach Hazard Statement

Elev 665 ft 42.41 °N, 86.05 °W | Updated 7 seconds ago

Mostly Cloudy
Mostly Cloudy
76.3 °F
Feels Like 76 °F
N
0.7
Wind Variable Wind from SE
Gusts 2.0 mph

Today
High -- | Low -- °F
--% Chance of Precip.
Yesterday
High -- | Low -- °F
Precip. -- in
7:09 AM 8:18 PM
Waxing Crescent, 43% visible
Pressure 29.77 in
Visibility 7.0 miles
Clouds Clear
Heat Index 76 °F
Dew Point 74 °F
Humidity 94%
Rainfall 0.30 in
Snow Depth Not available.
UV 8 out of 12
Pollen 9.10 out of 12
Ozone Good
PM2.5 Moderate
Flu Activity Not available.
METAR KLWA 011914Z AUTO 25013G17KT 7SM CLR 26/23 A2977 RMK AO2 T02610225

More Conditions Fewer Conditions

Pressure 29.77 in
Visibility 7.0 miles
Clouds Clear
Heat Index 76 °F
Dew Point 74 °F
Humidity 94%
Rainfall 0.30 in
Snow Depth Not available.
UV 8 out of 12
Pollen 9.10 out of 12
Ozone Good
PM2.5 Moderate
Flu Activity Not available.
METAR KLWA 011914Z AUTO 25013G17KT 7SM CLR 26/23 A2977 RMK AO2 T02610225

More Conditions Fewer Conditions

10-Day Weather Forecast

Almanac

Astronomy

Sep. 01, 2014 Rise Set
Actual Time 7:09 AM EDT 8:18 PM EDT
Civil Twilight 6:40 AM EDT 8:47 PM EDT
Nautical Twilight 6:05 AM EDT 9:21 PM EDT
Astronomical Twilight 5:29 AM EDT 9:57 PM EDT
Moon 2:02 PM EDT No Moon Set
Length of Visible Light 14h 06m
Length of Day
13h 08m
Tomorrow will be 2m 46s shorter.
Waxing Crescent, 43% of the Moon is Illuminated
Today
Waxing Crescent
Sep 2
First Quarter
Sep 8
Full
Sep 15
Last Quarter
Sep 24
New

Today's Extremes

State Highs State Lows

Community

WunderPhotos

Upload Photos

1,749,385 photos uploaded!

WunderBlogs® & News

Nearby

Air Quality

  Air Quality AQ Index Pollutant
Yesterday Good
OZONE
Yesterday Good
PM2.5
Current Moderate
PM2.5
Current Good
OZONE
Monday Good
OZONE
Monday Good
PM2.5
Tuesday Good
OZONE
Tuesday Good
PM2.5

Snow Depth

Station Depth Elevation
No new snow has been reported.

Earthquake Activity

City Distance Mag. Time & Date
No recent earthquake activity has been reported nearby.
Minimum magnitude displayed is 2.5.

Coastal Water Temperatures

Place Temperature
Holland, MI 70.0 °F

Nearby Weather Stations